Time;durP1;ratioP1;P1;durP2;ratioP2;P2;SDS_P1;SDS_P2;PMS_P1;PMS_P2;Temp;Humidity;BMP_temperature;BMP_pressure;BME280_temperature;BME280_humidity;BME280_pressure;Samples;Min_cycle;Max_cycle;Signal;HPM_P1;HPM_P2
2023/04/30 00:01:58;;;;;;;6.00;1.27;;;7.10;99.90;;;;;;5033417;28;20182;-82
2023/04/30 00:04:24;;;;;;;8.70;1.53;;;7.10;99.90;;;;;;5032298;28;20233;-82
2023/04/30 00:06:50;;;;;;;5.83;1.43;;;7.10;99.90;;;;;;5033630;28;20225;-82
2023/04/30 00:09:15;;;;;;;5.63;1.60;;;7.00;99.90;;;;;;5032350;28;20200;-82
2023/04/30 00:11:41;;;;;;;6.73;1.30;;;7.00;99.90;;;;;;5048729;28;20257;-83
2023/04/30 00:14:07;;;;;;;6.37;1.40;;;7.00;99.90;;;;;;5049044;28;20197;-82
2023/04/30 00:16:32;;;;;;;5.37;1.27;;;6.90;99.90;;;;;;5049115;28;20182;-82
2023/04/30 00:18:58;;;;;;;10.50;1.50;;;6.90;99.90;;;;;;5033526;28;20229;-82
2023/04/30 00:21:24;;;;;;;4.33;1.13;;;6.90;99.90;;;;;;5048768;28;20182;-82
2023/04/30 00:23:49;;;;;;;5.23;1.13;;;6.80;99.90;;;;;;5048683;28;20178;-82
2023/04/30 00:26:15;;;;;;;10.83;1.60;;;6.80;99.90;;;;;;5039573;28;20259;-82
2023/04/30 00:28:41;;;;;;;5.43;1.43;;;6.70;99.90;;;;;;5053607;28;20253;-82
2023/04/30 00:31:08;;;;;;;4.40;1.40;;;6.70;99.90;;;;;;5051979;28;20266;-82
2023/04/30 00:33:34;;;;;;;7.43;1.63;;;6.70;99.90;;;;;;5051916;28;20206;-82
2023/04/30 00:36:00;;;;;;;5.27;1.63;;;6.70;99.90;;;;;;5052116;28;20181;-82
2023/04/30 00:38:25;;;;;;;5.40;1.50;;;6.60;99.90;;;;;;5051947;28;20620;-82
2023/04/30 00:43:27;;;;;;;7.57;1.50;;;6.60;99.90;;;;;;5240863;22;20246;-82
2023/04/30 00:45:52;;;;;;;7.40;1.60;;;6.60;99.90;;;;;;5013461;28;20641;-82
2023/04/30 00:48:18;;;;;;;5.13;1.30;;;6.60;99.90;;;;;;5012322;28;20194;-83
2023/04/30 00:50:44;;;;;;;8.33;1.40;;;6.50;99.90;;;;;;5014612;28;20183;-83
2023/04/30 00:53:11;;;;;;;6.00;1.97;;;6.50;99.90;;;;;;5015726;28;20183;-82
2023/04/30 00:55:38;;;;;;;6.07;1.80;;;6.50;99.90;;;;;;5017248;28;20250;-83
2023/04/30 00:58:04;;;;;;;4.97;1.40;;;6.50;99.90;;;;;;5016759;28;20171;-83
2023/04/30 01:00:30;;;;;;;5.20;1.73;;;6.50;99.90;;;;;;5016858;28;20253;-82
2023/04/30 01:02:57;;;;;;;5.43;1.93;;;6.40;99.90;;;;;;5015656;28;20266;-81
2023/04/30 01:05:23;;;;;;;5.53;1.83;;;6.30;99.90;;;;;;5015567;28;20225;-82
2023/04/30 01:07:49;;;;;;;7.13;1.77;;;6.30;99.90;;;;;;5015694;28;20171;-82
2023/04/30 01:10:15;;;;;;;4.97;1.60;;;6.30;99.90;;;;;;5015557;28;20231;-83
2023/04/30 01:13:11;;;;;;;7.00;1.90;;;6.30;99.90;;;;;;5015784;28;20179;-82
2023/04/30 01:15:59;;;;;;;3.97;1.77;;;6.30;99.90;;;;;;5016720;28;20179;-82
2023/04/30 01:18:34;;;;;;;6.20;1.63;;;6.20;99.90;;;;;;5016712;28;20225;-81
2023/04/30 01:21:07;;;;;;;3.97;1.40;;;6.20;99.90;;;;;;5016584;28;20190;-82
2023/04/30 01:23:41;;;;;;;5.83;1.53;;;6.20;99.90;;;;;;5016439;28;20637;-82
2023/04/30 01:26:19;;;;;;;4.43;1.47;;;6.20;99.90;;;;;;5016098;28;20171;-82
2023/04/30 01:28:49;;;;;;;5.73;1.63;;;6.20;99.90;;;;;;5015027;28;20213;-82
2023/04/30 01:31:17;;;;;;;4.83;1.60;;;6.20;99.90;;;;;;5015011;28;20253;-82
2023/04/30 01:33:43;;;;;;;5.83;1.43;;;6.10;99.90;;;;;;5016148;28;20182;-83
2023/04/30 01:36:09;;;;;;;9.60;1.70;;;6.00;99.90;;;;;;5015087;28;20175;-82
2023/04/30 01:38:58;;;;;;;7.13;1.90;;;6.00;99.90;;;;;;5016232;28;20171;-82
2023/04/30 01:41:39;;;;;;;6.03;1.50;;;6.00;99.90;;;;;;5016165;28;20196;-83
2023/04/30 01:44:05;;;;;;;6.40;1.53;;;6.10;99.90;;;;;;5015722;28;20203;-82
2023/04/30 01:46:31;;;;;;;7.10;1.83;;;6.00;99.90;;;;;;5031300;28;20408;-83
2023/04/30 01:49:10;;;;;;;7.80;1.53;;;6.00;99.90;;;;;;5016058;28;20517;-82
2023/04/30 01:51:41;;;;;;;9.73;1.77;;;6.00;99.90;;;;;;5016057;28;20174;-82
2023/04/30 01:54:48;;;;;;;5.10;1.77;;;6.00;99.90;;;;;;5015902;28;20171;-83
2023/04/30 01:57:22;;;;;;;6.87;1.60;;;6.00;99.90;;;;;;5010568;28;20186;-82
2023/04/30 01:59:48;;;;;;;10.13;1.67;;;6.00;99.90;;;;;;5014582;28;20594;-82
2023/04/30 02:02:14;;;;;;;5.10;1.50;;;5.90;99.90;;;;;;5014972;28;20222;-82
2023/04/30 02:04:40;;;;;;;9.53;1.83;;;5.90;99.90;;;;;;5015724;28;20234;-82
2023/04/30 02:07:06;;;;;;;3.37;1.40;;;5.90;99.90;;;;;;5015731;28;20183;-83
2023/04/30 02:09:31;;;;;;;3.77;1.33;;;5.80;99.90;;;;;;5014342;28;20969;-82
2023/04/30 02:11:57;;;;;;;3.57;1.53;;;5.90;99.90;;;;;;5013927;28;20187;-83
2023/04/30 02:14:23;;;;;;;7.90;1.97;;;5.80;99.90;;;;;;5014387;28;20494;-83
2023/04/30 02:16:48;;;;;;;10.13;1.70;;;5.80;99.90;;;;;;5015696;28;20175;-83
2023/04/30 02:19:14;;;;;;;5.43;1.73;;;5.80;99.90;;;;;;5015621;28;20237;-83
2023/04/30 02:21:40;;;;;;;8.33;1.83;;;5.70;99.90;;;;;;5014075;28;20179;-82
2023/04/30 02:24:05;;;;;;;5.23;1.40;;;5.70;99.90;;;;;;5013634;28;20669;-82
2023/04/30 02:26:31;;;;;;;5.37;1.57;;;5.70;99.90;;;;;;5015502;28;20168;-82
2023/04/30 02:28:57;;;;;;;5.23;1.70;;;5.60;99.90;;;;;;5014934;28;20175;-83
2023/04/30 02:31:23;;;;;;;3.50;1.70;;;5.50;99.90;;;;;;5014058;28;20191;-83
2023/04/30 02:33:48;;;;;;;6.30;1.30;;;5.50;99.90;;;;;;5015259;28;20175;-82
2023/04/30 02:36:14;;;;;;;5.10;1.60;;;5.50;99.90;;;;;;5013873;28;20191;-83
2023/04/30 02:38:40;;;;;;;4.80;1.40;;;5.50;99.90;;;;;;5015215;28;20203;-82
2023/04/30 02:41:05;;;;;;;9.10;1.70;;;5.40;99.90;;;;;;5013713;28;20186;-81
2023/04/30 02:43:31;;;;;;;7.83;1.97;;;5.30;99.90;;;;;;5014269;28;20693;-82
2023/04/30 02:45:57;;;;;;;3.40;1.33;;;5.30;99.90;;;;;;5013788;28;20680;-82
2023/04/30 02:48:22;;;;;;;9.87;1.93;;;5.20;99.90;;;;;;5030229;28;20317;-83
2023/04/30 02:50:48;;;;;;;6.40;1.87;;;5.20;99.90;;;;;;5014787;28;20515;-83
2023/04/30 02:53:13;;;;;;;10.80;1.73;;;5.20;99.90;;;;;;5014812;28;20175;-83
2023/04/30 02:55:39;;;;;;;10.27;1.57;;;5.20;99.90;;;;;;5013609;28;20179;-82
2023/04/30 02:58:05;;;;;;;4.77;1.40;;;5.20;99.90;;;;;;5013256;28;20336;-83
2023/04/30 03:00:30;;;;;;;5.07;1.57;;;5.20;99.90;;;;;;5014792;28;20193;-82
2023/04/30 03:02:56;;;;;;;4.33;1.60;;;5.20;99.90;;;;;;5014590;28;20258;-82
2023/04/30 03:05:22;;;;;;;5.20;1.90;;;5.20;99.90;;;;;;5014599;28;20238;-82
2023/04/30 03:07:48;;;;;;;3.63;1.50;;;5.10;99.90;;;;;;5014703;28;20168;-83
2023/04/30 03:10:14;;;;;;;8.13;2.07;;;5.10;99.90;;;;;;5013239;28;20676;-81
2023/04/30 03:12:39;;;;;;;6.13;1.70;;;5.00;99.90;;;;;;5012665;28;20609;-81
2023/04/30 03:15:06;;;;;;;4.00;1.90;;;5.00;99.90;;;;;;5013430;28;20187;-82
2023/04/30 03:17:32;;;;;;;9.77;1.97;;;4.80;99.90;;;;;;5014467;28;20190;-81
2023/04/30 03:19:57;;;;;;;6.43;1.47;;;4.80;99.90;;;;;;5013082;28;20591;-82
2023/04/30 03:22:25;;;;;;;6.93;1.67;;;4.80;99.90;;;;;;5014183;28;20175;-81
2023/04/30 03:24:51;;;;;;;7.70;1.80;;;4.80;99.90;;;;;;5012694;28;20661;-82
2023/04/30 03:27:16;;;;;;;5.47;1.80;;;4.80;99.90;;;;;;5014089;28;20171;-81
2023/04/30 03:29:42;;;;;;;7.13;1.80;;;4.80;99.90;;;;;;5012900;28;20183;-82
2023/04/30 03:32:08;;;;;;;6.00;2.27;;;4.80;99.90;;;;;;5014225;28;20182;-82
2023/04/30 03:34:34;;;;;;;5.60;1.83;;;4.70;99.90;;;;;;5014155;28;20180;-82
2023/04/30 03:37:00;;;;;;;9.57;1.90;;;4.70;99.90;;;;;;5014081;28;20186;-81
2023/04/30 03:39:26;;;;;;;4.20;1.40;;;4.70;99.90;;;;;;5014070;28;20175;-81
2023/04/30 03:41:52;;;;;;;3.80;1.87;;;4.60;99.90;;;;;;5013697;28;20171;-82
2023/04/30 03:44:17;;;;;;;5.90;2.07;;;4.50;99.90;;;;;;5012548;28;20221;-82
2023/04/30 03:46:43;;;;;;;5.13;2.00;;;4.50;99.90;;;;;;5014077;28;20179;-82
2023/04/30 03:49:09;;;;;;;3.67;1.77;;;4.50;99.90;;;;;;5012569;28;20186;-82
2023/04/30 03:51:38;;;;;;;4.90;2.83;;;4.50;99.90;;;;;;5012645;28;20182;-81
2023/04/30 03:54:07;;;;;;;5.60;2.03;;;4.40;99.90;;;;;;5013683;28;20186;-81
2023/04/30 03:56:35;;;;;;;3.03;1.63;;;4.40;99.90;;;;;;5013922;28;20167;-82
2023/04/30 03:59:00;;;;;;;5.13;2.07;;;4.40;99.90;;;;;;5013764;28;20225;-82
2023/04/30 04:01:27;;;;;;;3.80;2.20;;;4.40;99.90;;;;;;5013722;28;20171;-82
2023/04/30 04:03:53;;;;;;;9.17;2.43;;;4.50;99.90;;;;;;5012399;28;20183;-82
2023/04/30 04:06:19;;;;;;;5.37;2.20;;;4.50;99.90;;;;;;5012570;28;20210;-81
2023/04/30 04:08:45;;;;;;;7.33;2.30;;;4.40;99.90;;;;;;5013790;28;20170;-82
2023/04/30 04:11:11;;;;;;;3.20;1.43;;;4.40;99.90;;;;;;5013737;28;20266;-82
2023/04/30 04:13:37;;;;;;;4.37;1.70;;;4.40;99.90;;;;;;5013369;28;20183;-82
2023/04/30 04:16:03;;;;;;;8.90;2.40;;;4.40;99.90;;;;;;5012411;28;20537;-81
2023/04/30 04:18:29;;;;;;;7.10;2.00;;;4.50;99.90;;;;;;5012434;28;20317;-82
2023/04/30 04:20:55;;;;;;;4.83;1.97;;;4.50;99.90;;;;;;5012339;28;20210;-82
2023/04/30 04:23:21;;;;;;;3.97;1.80;;;4.40;99.90;;;;;;5013621;28;20263;-81
2023/04/30 04:25:48;;;;;;;4.20;2.13;;;4.40;99.90;;;;;;5014884;28;20531;-82
2023/04/30 04:28:15;;;;;;;4.87;1.73;;;4.40;99.90;;;;;;5016148;28;20164;-81
2023/04/30 04:30:42;;;;;;;7.07;1.87;;;4.40;99.90;;;;;;5017510;28;20269;-82
2023/04/30 04:33:10;;;;;;;6.67;2.13;;;4.50;99.90;;;;;;5015957;28;20167;-82
2023/04/30 04:35:37;;;;;;;6.23;2.93;;;4.50;99.90;;;;;;5016415;28;20241;-83
2023/04/30 04:38:03;;;;;;;4.17;1.70;;;4.50;99.90;;;;;;5017428;28;20194;-82
2023/04/30 04:40:29;;;;;;;5.93;2.37;;;4.50;99.90;;;;;;5016214;28;20175;-82
2023/04/30 04:42:55;;;;;;;4.47;2.07;;;4.60;99.90;;;;;;5015504;28;20241;-82
2023/04/30 04:45:20;;;;;;;4.70;1.90;;;4.60;99.90;;;;;;5015909;28;20218;-82
2023/04/30 04:47:47;;;;;;;4.87;2.10;;;4.70;99.90;;;;;;5017245;28;20171;-82
2023/04/30 04:50:13;;;;;;;5.50;2.47;;;4.70;99.90;;;;;;5017112;28;20186;-82
2023/04/30 04:52:39;;;;;;;7.13;2.60;;;4.80;99.90;;;;;;5017019;28;20184;-83
2023/04/30 04:55:06;;;;;;;4.47;2.20;;;4.90;99.90;;;;;;5015903;28;20255;-82
2023/04/30 04:57:31;;;;;;;4.43;1.90;;;5.00;99.90;;;;;;5015608;28;20229;-82
2023/04/30 04:59:57;;;;;;;5.57;2.20;;;5.20;99.90;;;;;;5015693;28;20183;-82
2023/04/30 05:02:23;;;;;;;6.60;2.03;;;5.30;99.90;;;;;;5016953;28;20236;-82
2023/04/30 05:04:49;;;;;;;7.13;2.40;;;5.40;99.90;;;;;;5015610;28;20269;-82
2023/04/30 05:07:18;;;;;;;5.23;2.40;;;5.60;99.90;;;;;;5015584;28;20645;-82
2023/04/30 05:09:45;;;;;;;6.43;2.30;;;5.80;99.90;;;;;;5015635;28;20568;-82
2023/04/30 05:12:12;;;;;;;6.90;2.63;;;5.90;99.90;;;;;;5015401;28;20246;-82
2023/04/30 05:14:37;;;;;;;8.23;3.10;;;6.00;99.90;;;;;;5015347;28;20274;-82
2023/04/30 05:17:03;;;;;;;4.63;2.30;;;6.10;99.90;;;;;;5031973;28;20300;-81
2023/04/30 05:19:29;;;;;;;7.80;2.70;;;6.20;99.90;;;;;;5016636;28;20182;-83
2023/04/30 05:21:55;;;;;;;8.67;2.93;;;6.20;99.90;;;;;;5027091;28;20180;-83
2023/04/30 05:24:21;;;;;;;7.83;2.70;;;6.30;99.90;;;;;;5005711;28;20282;-82
2023/04/30 05:26:47;;;;;;;5.73;2.40;;;6.40;99.90;;;;;;5007383;28;20179;-82
2023/04/30 05:29:13;;;;;;;5.97;2.40;;;6.50;99.90;;;;;;5004480;28;20164;-83
2023/04/30 05:31:40;;;;;;;7.80;2.77;;;6.50;99.90;;;;;;5005643;28;20187;-83
2023/04/30 05:34:06;;;;;;;8.70;2.10;;;6.50;99.90;;;;;;5005820;28;20171;-83
2023/04/30 05:36:32;;;;;;;5.17;2.20;;;6.70;99.90;;;;;;5003300;28;20190;-83
2023/04/30 05:38:58;;;;;;;8.40;2.50;;;6.70;99.90;;;;;;5013349;28;20179;-82
2023/04/30 05:41:23;;;;;;;16.70;2.77;;;6.70;99.90;;;;;;5031498;28;20189;-82
2023/04/30 05:43:49;;;;;;;6.47;2.40;;;6.70;99.90;;;;;;5015566;28;20223;-82
2023/04/30 05:46:16;;;;;;;11.23;3.07;;;6.80;99.90;;;;;;5016276;28;20853;-83
2023/04/30 05:48:41;;;;;;;9.20;2.30;;;6.80;99.90;;;;;;5016100;28;20263;-82
2023/04/30 05:51:07;;;;;;;18.63;8.93;;;6.80;99.90;;;;;;5014708;28;20273;-84
2023/04/30 05:53:33;;;;;;;7.80;3.40;;;6.80;99.90;;;;;;5015962;28;20183;-83
2023/04/30 05:55:59;;;;;;;9.93;2.17;;;6.90;99.90;;;;;;5031195;28;20504;-83
2023/04/30 05:58:24;;;;;;;10.90;2.20;;;7.00;99.90;;;;;;5014313;28;20178;-82
2023/04/30 06:00:53;;;;;;;7.27;2.30;;;7.20;99.90;;;;;;5014663;28;20198;-83
2023/04/30 06:03:19;;;;;;;8.80;2.27;;;7.30;99.90;;;;;;5014331;28;20179;-82
2023/04/30 06:05:46;;;;;;;7.00;2.13;;;7.40;99.90;;;;;;5015672;28;20285;-82
2023/04/30 06:08:12;;;;;;;7.87;1.93;;;7.40;99.90;;;;;;5008370;28;20172;-82
2023/04/30 06:10:38;;;;;;;15.00;2.80;;;7.50;99.90;;;;;;5002666;28;20199;-83
2023/04/30 06:13:03;;;;;;;4.83;2.10;;;7.60;99.90;;;;;;5006175;28;20171;-83
2023/04/30 06:15:29;;;;;;;7.93;2.40;;;7.70;99.90;;;;;;5000797;28;20190;-86
2023/04/30 06:17:55;;;;;;;4.70;1.90;;;7.70;99.90;;;;;;4996233;28;20211;-83
2023/04/30 06:20:21;;;;;;;6.63;2.13;;;7.80;99.90;;;;;;4996165;28;20215;-83
2023/04/30 06:22:46;;;;;;;8.23;2.37;;;7.90;99.90;;;;;;5010804;28;20246;-81
2023/04/30 06:25:12;;;;;;;7.87;2.13;;;7.90;99.90;;;;;;4995338;28;20294;-82
2023/04/30 06:27:38;;;;;;;7.30;2.07;;;8.00;99.90;;;;;;5011016;28;20206;-82
2023/04/30 06:30:04;;;;;;;9.73;2.23;;;8.10;99.90;;;;;;4995478;28;20172;-82
2023/04/30 06:32:30;;;;;;;8.97;2.13;;;8.20;99.90;;;;;;4995601;28;20180;-82
2023/04/30 06:34:55;;;;;;;7.70;2.37;;;8.20;99.90;;;;;;4994617;28;20184;-82
2023/04/30 06:37:21;;;;;;;9.90;2.67;;;8.20;99.90;;;;;;4998162;28;20191;-83
2023/04/30 06:39:47;;;;;;;9.77;2.40;;;8.40;99.90;;;;;;4994379;28;20175;-83
2023/04/30 06:42:13;;;;;;;9.80;2.20;;;8.40;99.90;;;;;;4998571;28;20235;-82
2023/04/30 06:44:39;;;;;;;5.63;2.30;;;8.40;99.90;;;;;;5013560;28;20675;-83
2023/04/30 06:47:04;;;;;;;9.53;2.63;;;8.50;99.90;;;;;;5013382;28;20274;-82
2023/04/30 06:49:30;;;;;;;11.27;2.03;;;8.70;99.90;;;;;;5013723;28;20512;-83
2023/04/30 06:51:57;;;;;;;9.47;2.43;;;8.70;99.90;;;;;;5013555;28;20277;-84
2023/04/30 06:54:25;;;;;;;8.20;3.57;;;8.70;99.90;;;;;;5013614;28;20187;-83
2023/04/30 06:56:51;;;;;;;24.17;9.47;;;8.70;99.90;;;;;;5009199;28;20670;-83
2023/04/30 06:59:17;;;;;;;17.30;6.97;;;8.80;99.90;;;;;;5003882;28;20257;-82
2023/04/30 07:01:42;;;;;;;7.57;2.13;;;8.60;99.90;;;;;;5004264;28;20179;-82
2023/04/30 07:04:08;;;;;;;19.80;7.80;;;8.70;99.90;;;;;;5026101;28;20259;-82
2023/04/30 07:06:34;;;;;;;68.60;30.50;;;8.70;99.90;;;;;;5012219;28;20262;-83
2023/04/30 07:08:59;;;;;;;253.03;104.67;;;8.80;99.90;;;;;;5014462;28;20255;-83
2023/04/30 07:11:25;;;;;;;26.40;10.40;;;8.70;99.90;;;;;;5029841;28;20182;-83
2023/04/30 07:13:52;;;;;;;11.07;4.27;;;8.70;99.90;;;;;;5029372;28;20215;-82
2023/04/30 07:16:18;;;;;;;9.60;3.63;;;8.80;99.90;;;;;;5011247;28;20187;-83
2023/04/30 07:18:43;;;;;;;17.03;2.80;;;8.90;99.90;;;;;;5000113;28;20610;-82
2023/04/30 07:21:09;;;;;;;9.83;2.87;;;9.00;99.90;;;;;;4993482;28;20676;-82
2023/04/30 07:23:35;;;;;;;6.13;1.93;;;9.20;99.90;;;;;;4999651;28;20175;-83
2023/04/30 07:26:01;;;;;;;9.57;2.03;;;9.20;99.90;;;;;;5003699;28;20224;-82
2023/04/30 07:28:27;;;;;;;6.93;2.33;;;9.20;99.90;;;;;;5000725;28;20180;-82
2023/04/30 07:30:53;;;;;;;6.40;1.77;;;9.30;99.90;;;;;;5002550;28;20178;-82
2023/04/30 07:33:18;;;;;;;7.32;2.20;;;9.40;99.90;;;;;;5008243;28;20688;-81
2023/04/30 07:35:44;;;;;;;7.90;2.33;;;9.30;99.90;;;;;;5014435;28;20159;-82
2023/04/30 07:38:10;;;;;;;7.80;2.40;;;9.50;99.60;;;;;;5029201;28;20203;-83
2023/04/30 07:40:36;;;;;;;14.32;3.10;;;9.60;99.50;;;;;;5014036;28;20202;-83
2023/04/30 07:43:02;;;;;;;7.80;2.70;;;9.60;99.90;;;;;;5012243;28;20236;-81
2023/04/30 07:45:28;;;;;;;13.68;4.18;;;9.60;99.30;;;;;;5014069;28;20404;-81
2023/04/30 07:47:54;;;;;;;9.40;2.10;;;9.50;99.90;;;;;;5007069;28;20171;-82
2023/04/30 07:50:20;;;;;;;7.25;2.40;;;9.50;99.90;;;;;;5018406;28;20183;-83
2023/04/30 07:52:48;;;;;;;9.05;4.78;;;9.80;99.60;;;;;;5024032;28;20171;-82
2023/04/30 07:55:14;;;;;;;8.00;2.60;;;10.00;98.80;;;;;;5027438;28;20190;-81
2023/04/30 07:57:40;;;;;;;95.05;35.22;;;9.90;98.40;;;;;;5021419;28;20182;-81
2023/04/30 08:00:06;;;;;;;94.35;30.65;;;9.90;98.10;;;;;;5020344;28;20186;-83
2023/04/30 08:02:33;;;;;;;3.95;2.22;;;10.00;98.80;;;;;;5025202;28;20194;-83
2023/04/30 08:04:58;;;;;;;65.82;22.27;;;10.00;99.90;;;;;;5036172;28;20218;-82
2023/04/30 08:07:24;;;;;;;7.70;2.95;;;10.10;97.20;;;;;;5017168;28;20183;-82
2023/04/30 08:09:50;;;;;;;5.30;1.80;;;10.00;98.60;;;;;;5039803;28;20183;-83
2023/04/30 08:12:17;;;;;;;8.48;2.70;;;10.20;97.30;;;;;;5039015;28;20175;-81
2023/04/30 08:14:42;;;;;;;8.50;2.03;;;10.00;98.10;;;;;;5035233;28;20244;-81
2023/04/30 08:17:08;;;;;;;6.70;2.35;;;10.10;98.30;;;;;;5023623;28;20271;-82
2023/04/30 08:19:34;;;;;;;16.17;7.43;;;10.30;98.70;;;;;;5023958;28;20332;-84
2023/04/30 08:22:00;;;;;;;11.48;2.30;;;10.50;97.60;;;;;;5027848;28;20555;-81
2023/04/30 08:24:25;;;;;;;47.42;18.75;;;10.40;96.70;;;;;;5012585;28;20202;-81
2023/04/30 08:26:51;;;;;;;10.85;2.65;;;10.40;96.90;;;;;;5009356;28;20192;-82
2023/04/30 08:29:18;;;;;;;2.72;1.55;;;10.50;96.60;;;;;;5007245;28;20273;-82
2023/04/30 08:31:44;;;;;;;8.82;2.65;;;10.40;98.00;;;;;;5011773;28;20180;-82
2023/04/30 08:34:09;;;;;;;8.32;2.50;;;10.60;98.90;;;;;;5011076;28;20282;-82
2023/04/30 08:36:35;;;;;;;7.40;2.50;;;10.60;97.00;;;;;;5013206;28;20254;-83
2023/04/30 08:39:01;;;;;;;7.90;1.95;;;10.70;98.20;;;;;;5027535;28;20175;-82
2023/04/30 08:41:31;;;;;;;8.02;1.98;;;10.70;97.50;;;;;;5013221;28;20163;-84
2023/04/30 08:44:02;;;;;;;4.85;2.00;;;10.80;98.40;;;;;;5012014;28;20223;-83
2023/04/30 08:46:31;;;;;;;6.97;2.22;;;10.80;96.60;;;;;;5013415;28;20253;-82
2023/04/30 08:48:57;;;;;;;7.93;2.13;;;10.80;98.80;;;;;;5004854;28;20527;-82
2023/04/30 08:51:24;;;;;;;7.45;2.00;;;10.90;96.90;;;;;;5016441;28;20262;-83
2023/04/30 08:53:52;;;;;;;7.95;2.22;;;11.10;96.30;;;;;;4992045;28;20521;-83
2023/04/30 08:56:18;;;;;;;5.28;2.63;;;11.10;96.10;;;;;;4991804;28;20729;-81
2023/04/30 08:58:43;;;;;;;6.00;2.20;;;11.10;97.00;;;;;;4991809;28;20238;-82
2023/04/30 09:01:09;;;;;;;6.50;2.33;;;11.10;96.60;;;;;;4992982;28;20164;-82
2023/04/30 09:03:36;;;;;;;8.82;2.20;;;11.20;96.90;;;;;;4992648;28;20172;-80
2023/04/30 09:06:02;;;;;;;8.55;4.15;;;11.40;96.50;;;;;;4992830;28;20262;-81
2023/04/30 09:08:45;;;;;;;9.50;2.17;;;11.40;95.30;;;;;;4992995;28;20564;-82
2023/04/30 09:11:21;;;;;;;5.15;1.80;;;11.40;94.50;;;;;;4996386;28;20169;-81
2023/04/30 09:13:48;;;;;;;7.53;2.40;;;11.20;94.10;;;;;;5016631;28;20286;-82
2023/04/30 09:16:14;;;;;;;9.15;2.20;;;11.20;95.00;;;;;;5016983;28;20222;-84
2023/04/30 09:18:41;;;;;;;9.02;1.92;;;11.30;96.00;;;;;;5011696;28;20172;-81
2023/04/30 09:21:07;;;;;;;7.93;2.53;;;11.50;94.10;;;;;;4996895;28;20607;-81
2023/04/30 09:23:33;;;;;;;7.95;2.30;;;11.60;93.20;;;;;;5011890;28;20187;-81
2023/04/30 09:26:02;;;;;;;6.38;1.90;;;11.40;93.10;;;;;;5011985;28;20219;-81
2023/04/30 09:28:28;;;;;;;6.50;3.72;;;11.40;91.50;;;;;;4996958;28;20199;-81
2023/04/30 09:30:57;;;;;;;6.93;2.53;;;11.40;91.70;;;;;;4995501;28;20175;-80
2023/04/30 09:33:23;;;;;;;9.02;2.08;;;11.40;93.00;;;;;;4996042;28;20179;-81
2023/04/30 09:35:49;;;;;;;8.80;2.00;;;11.60;92.70;;;;;;5011234;28;20179;-82
2023/04/30 09:38:29;;;;;;;7.30;1.90;;;11.70;92.70;;;;;;4995511;28;20184;-83
2023/04/30 09:40:57;;;;;;;5.90;2.10;;;11.70;92.90;;;;;;4995416;28;20211;-81
2023/04/30 09:43:23;;;;;;;8.23;3.15;;;11.70;92.20;;;;;;5027460;28;20231;-80
2023/04/30 09:45:50;;;;;;;10.55;4.30;;;11.80;93.20;;;;;;4996492;28;20516;-86
2023/04/30 09:48:17;;;;;;;8.85;2.45;;;11.80;90.90;;;;;;5008868;28;20242;-82
2023/04/30 09:50:44;;;;;;;7.30;2.33;;;11.80;91.90;;;;;;5029050;28;20681;-80
2023/04/30 09:53:13;;;;;;;4.65;1.90;;;11.90;91.00;;;;;;5014655;28;20172;-81
2023/04/30 09:55:41;;;;;;;4.85;1.70;;;12.00;90.70;;;;;;5003797;28;20180;-81
2023/04/30 09:58:10;;;;;;;10.77;2.05;;;11.90;88.20;;;;;;5002234;28;20275;-81
2023/04/30 10:00:38;;;;;;;10.05;2.58;;;12.20;92.90;;;;;;5000963;28;20619;-82
2023/04/30 10:03:11;;;;;;;5.93;2.13;;;12.40;92.40;;;;;;5009606;28;20259;-84
2023/04/30 10:05:41;;;;;;;8.18;2.42;;;12.50;92.60;;;;;;5011983;28;20893;-82
2023/04/30 10:08:13;;;;;;;6.03;1.63;;;12.60;92.80;;;;;;5015348;28;20171;-81
2023/04/30 10:10:42;;;;;;;6.57;2.00;;;12.70;91.00;;;;;;5024605;28;20273;-81
2023/04/30 10:13:13;;;;;;;11.52;2.60;;;12.90;91.50;;;;;;5013515;28;20626;-81
2023/04/30 10:15:44;;;;;;;9.35;1.98;;;12.80;89.20;;;;;;5021186;28;20195;-80
2023/04/30 10:18:16;;;;;;;8.02;1.77;;;13.10;92.30;;;;;;5005469;28;20176;-81
2023/04/30 10:20:43;;;;;;;7.20;2.17;;;13.00;89.90;;;;;;5025884;28;20190;-81
2023/04/30 10:23:10;;;;;;;7.63;2.05;;;12.90;92.40;;;;;;5013157;28;20226;-83
2023/04/30 10:25:39;;;;;;;10.57;2.60;;;12.70;91.70;;;;;;5014259;28;20207;-80
2023/04/30 10:28:07;;;;;;;6.88;2.10;;;12.60;92.50;;;;;;5014018;28;20521;-80
2023/04/30 10:30:34;;;;;;;5.25;2.05;;;12.90;93.00;;;;;;5015379;28;20187;-80
2023/04/30 10:33:09;;;;;;;7.72;2.22;;;12.90;89.60;;;;;;5014950;28;20160;-80
2023/04/30 10:35:50;;;;;;;6.25;1.85;;;13.00;90.00;;;;;;5015300;28;20167;-83
2023/04/30 10:38:23;;;;;;;4.68;2.05;;;13.00;92.60;;;;;;5015211;28;20598;-80
2023/04/30 10:40:50;;;;;;;5.93;2.25;;;13.10;91.00;;;;;;5014054;28;20164;-80
2023/04/30 10:43:20;;;;;;;7.28;2.05;;;13.20;92.30;;;;;;5012906;28;20222;-83
2023/04/30 10:45:47;;;;;;;6.65;1.95;;;13.20;93.60;;;;;;5014894;28;20199;-80
2023/04/30 10:48:15;;;;;;;8.60;2.53;;;13.30;90.40;;;;;;5014746;28;20175;-79
2023/04/30 10:50:43;;;;;;;8.65;2.28;;;13.20;90.60;;;;;;5013939;28;20191;-79
2023/04/30 10:53:16;;;;;;;5.90;2.20;;;13.20;91.10;;;;;;5029742;28;20181;-80
2023/04/30 10:55:48;;;;;;;7.47;2.35;;;13.40;91.40;;;;;;5030113;28;20187;-80
2023/04/30 10:58:30;;;;;;;5.78;1.98;;;13.60;91.30;;;;;;5014713;28;20168;-80
2023/04/30 11:01:01;;;;;;;12.20;2.50;;;13.80;90.20;;;;;;5029958;28;20174;-80
2023/04/30 11:03:29;;;;;;;6.72;2.05;;;14.00;91.40;;;;;;5014377;28;20168;-80
2023/04/30 11:05:54;;;;;;;4.53;1.80;;;14.20;90.50;;;;;;5011292;28;20553;-80
2023/04/30 11:08:35;;;;;;;6.72;2.00;;;14.50;90.00;;;;;;5006505;28;20649;-80
2023/04/30 11:11:01;;;;;;;5.88;2.03;;;14.60;89.90;;;;;;5014338;28;20174;-80
2023/04/30 11:13:27;;;;;;;5.60;1.90;;;14.60;87.40;;;;;;5017750;28;20183;-80
2023/04/30 11:15:53;;;;;;;9.18;2.33;;;14.70;86.30;;;;;;5011563;28;20191;-79
2023/04/30 11:18:19;;;;;;;4.10;2.20;;;14.90;90.10;;;;;;5007085;28;20258;-79
2023/04/30 11:20:56;;;;;;;4.93;1.95;;;15.10;86.60;;;;;;5012209;28;20645;-80
2023/04/30 11:23:25;;;;;;;7.03;1.73;;;14.90;85.00;;;;;;5012644;28;20194;-80
2023/04/30 11:25:53;;;;;;;6.43;2.15;;;15.00;86.10;;;;;;5003838;28;20214;-80
2023/04/30 11:28:26;;;;;;;5.68;1.73;;;15.10;87.00;;;;;;5014405;28;20514;-80
2023/04/30 11:30:57;;;;;;;4.70;1.65;;;15.10;85.40;;;;;;5029413;28;20245;-82
2023/04/30 11:33:25;;;;;;;5.18;1.95;;;15.00;82.60;;;;;;5008756;28;20203;-84
2023/04/30 11:35:52;;;;;;;7.47;2.10;;;14.90;83.40;;;;;;5014432;28;20171;-84
2023/04/30 11:38:23;;;;;;;9.65;2.03;;;14.90;82.50;;;;;;5014531;28;20186;-84
2023/04/30 11:40:50;;;;;;;10.48;1.67;;;14.80;82.10;;;;;;5023250;28;20509;-85
2023/04/30 11:43:27;;;;;;;6.65;1.83;;;14.90;82.70;;;;;;5004317;28;20219;-82
2023/04/30 11:46:14;;;;;;;7.38;2.22;;;15.00;77.30;;;;;;4994662;28;20222;-86
2023/04/30 11:48:42;;;;;;;5.85;1.90;;;14.70;83.80;;;;;;4994558;28;20179;-84
2023/04/30 11:51:20;;;;;;;9.65;1.92;;;15.00;84.20;;;;;;4994674;28;20183;-86
2023/04/30 11:53:47;;;;;;;7.47;2.00;;;15.20;82.20;;;;;;5000727;28;20187;-86
2023/04/30 11:56:19;;;;;;;6.72;2.10;;;15.30;80.30;;;;;;4994838;28;20187;-83
2023/04/30 11:58:46;;;;;;;7.43;2.28;;;15.00;79.30;;;;;;4994813;28;20607;-86
2023/04/30 12:01:12;;;;;;;8.02;1.80;;;15.00;81.40;;;;;;4994682;28;20191;-80
2023/04/30 12:03:49;;;;;;;5.13;2.20;;;15.20;80.10;;;;;;5002879;28;20258;-81
2023/04/30 12:06:22;;;;;;;6.05;1.80;;;15.20;79.50;;;;;;5004871;28;20218;-82
2023/04/30 12:08:48;;;;;;;6.53;1.77;;;15.30;82.20;;;;;;5011600;28;20183;-81
2023/04/30 12:11:27;;;;;;;8.95;2.40;;;15.30;81.40;;;;;;5014026;28;20182;-81
2023/04/30 12:13:54;;;;;;;7.60;2.28;;;15.30;79.20;;;;;;5014241;28;20182;-81
2023/04/30 12:16:21;;;;;;;9.50;2.20;;;15.10;77.10;;;;;;5014057;28;20167;-86
2023/04/30 12:18:48;;;;;;;5.03;1.80;;;15.20;76.60;;;;;;5013912;28;20191;-87
2023/04/30 12:21:15;;;;;;;5.50;1.70;;;15.30;81.00;;;;;;5010975;28;20187;-83
2023/04/30 12:23:41;;;;;;;5.65;2.05;;;15.60;79.20;;;;;;5013415;28;20184;-84
2023/04/30 12:26:07;;;;;;;6.00;1.83;;;15.80;81.20;;;;;;5013789;28;20246;-84
2023/04/30 12:28:34;;;;;;;6.15;2.20;;;15.80;79.70;;;;;;5013668;28;20230;-86
2023/04/30 12:30:59;;;;;;;5.60;1.90;;;15.90;78.70;;;;;;5013977;28;20175;-79
2023/04/30 12:33:29;;;;;;;8.10;2.00;;;16.10;79.90;;;;;;5009590;28;20255;-85
2023/04/30 12:35:56;;;;;;;5.45;1.80;;;16.20;79.60;;;;;;5014131;28;20178;-80
2023/04/30 12:38:22;;;;;;;6.63;1.90;;;16.20;83.30;;;;;;5013495;28;20175;-83
2023/04/30 12:40:48;;;;;;;7.07;1.88;;;16.40;82.30;;;;;;5012191;28;20238;-80
2023/04/30 12:43:15;;;;;;;5.10;1.70;;;16.40;79.50;;;;;;5008023;28;20219;-80
2023/04/30 12:45:52;;;;;;;9.18;2.33;;;16.50;78.40;;;;;;5010251;28;20262;-82
2023/04/30 12:48:20;;;;;;;6.13;1.75;;;16.40;76.60;;;;;;4997575;28;20164;-80
2023/04/30 12:50:58;;;;;;;5.85;1.85;;;16.30;77.40;;;;;;5004171;28;20211;-79
2023/04/30 12:53:24;;;;;;;7.53;2.10;;;16.10;79.90;;;;;;5016000;28;20179;-80
2023/04/30 12:56:08;;;;;;;5.07;1.90;;;16.20;76.60;;;;;;4998200;28;20279;-80